createdAt,value
2022-09-24T13:04:25.417Z,19.6
2022-09-24T13:05:09.608Z,16.486
2022-09-24T13:06:09.161Z,16.671
2022-09-24T13:07:09.578Z,16.97
2022-09-24T13:08:09.599Z,17.207
2022-09-24T13:09:10.415Z,17.51
2022-09-24T13:10:10.348Z,17.94
2022-09-24T13:11:10.160Z,18.218
2022-09-24T13:12:09.718Z,18.305
2022-09-24T13:13:09.990Z,18.29
2022-09-24T13:14:10.154Z,18.445
2022-09-24T13:15:09.521Z,18.595
2022-09-24T13:16:09.770Z,18.739
2022-09-24T13:17:09.896Z,18.887
2022-09-24T13:18:09.836Z,18.975
2022-09-24T13:19:09.492Z,19.2
2022-09-24T13:20:09.922Z,19.53
2022-09-24T13:21:09.875Z,19.734
2022-09-24T13:22:09.986Z,19.866
2022-09-24T13:23:09.280Z,19.975
2022-09-24T13:24:09.185Z,20.035
2022-09-24T13:25:08.929Z,20.09
2022-09-24T13:26:10.114Z,20.16
2022-09-24T13:27:10.455Z,20.177
2022-09-24T13:28:10.029Z,20.225
2022-09-24T13:29:10.476Z,20.23
2022-09-24T13:30:10.437Z,20.245
2022-09-24T13:31:10.248Z,20.275
2022-09-24T13:32:10.003Z,20.28
2022-09-24T13:33:10.169Z,20.3108
2022-09-24T13:34:09.598Z,20.316
2022-09-24T13:35:10.130Z,20.339
2022-09-24T13:36:09.922Z,20.3791
2022-09-24T13:37:10.198Z,20.405
2022-09-24T13:38:10.205Z,20.425
2022-09-24T13:39:10.702Z,20.435
2022-09-24T13:40:09.655Z,20.47
2022-09-24T13:41:09.933Z,20.43
2022-09-24T13:42:09.115Z,20.4345
2022-09-24T13:43:09.660Z,20.453
2022-09-24T13:44:09.628Z,20.494
2022-09-24T13:45:10.114Z,20.455
2022-09-24T13:46:09.691Z,20.455
2022-09-24T13:47:09.619Z,20.455
2022-09-24T13:48:09.303Z,20.42
2022-09-24T13:49:09.449Z,20.395
2022-09-24T13:50:10.301Z,20.403
2022-09-24T13:51:08.411Z,20.3963
2022-09-24T13:52:09.644Z,20.3892
2022-09-24T13:53:09.650Z,20.4018
2022-09-24T13:54:10.224Z,20.3791
2022-09-24T13:55:10.160Z,20.384
2022-09-24T13:56:10.278Z,20.3984
2022-09-24T13:57:10.667Z,18
2022-09-24T13:58:09.461Z,20.4345
2022-09-24T13:59:10.239Z,20.42
2022-09-24T14:00:09.775Z,20.405
2022-09-24T14:01:12.655Z,20.415
2022-09-24T14:02:10.052Z,20.42
2022-09-24T14:03:10.051Z,20.42
2022-09-24T14:04:09.368Z,20.435
2022-09-24T14:05:09.902Z,20.485
2022-09-24T14:06:09.734Z,20.485
2022-09-24T14:07:10.359Z,20.5
2022-09-24T14:08:09.825Z,20.53
2022-09-24T14:09:09.916Z,20.55
2022-09-24T14:10:09.619Z,20.6
2022-09-24T14:11:11.194Z,20.637
2022-09-24T14:12:10.849Z,20.672
2022-09-24T14:13:10.901Z,20.682
2022-09-24T14:14:10.884Z,20.666
2022-09-24T14:15:11.030Z,20.666
2022-09-24T14:16:11.138Z,20.6783
2022-09-24T14:17:10.700Z,20.7
2022-09-24T14:18:13.018Z,20.69
2022-09-24T14:19:11.758Z,20.677
2022-09-24T14:20:11.935Z,20.672
2022-09-24T14:21:11.952Z,20.621
2022-09-24T14:22:11.514Z,20.61
2022-09-24T14:23:11.588Z,20.61
2022-09-24T14:24:11.663Z,20.595
2022-09-24T14:25:11.681Z,20.595
2022-09-24T14:26:11.697Z,20.6
2022-09-24T14:27:11.657Z,20.6
2022-09-24T14:28:11.237Z,20.565
2022-09-24T14:29:11.651Z,20.55
2022-09-24T14:30:11.265Z,20.53
2022-09-24T14:31:11.974Z,20.505
2022-09-24T14:32:11.518Z,20.52
2022-09-24T14:33:11.408Z,20.52
2022-09-24T14:34:11.217Z,20.52
2022-09-24T14:35:11.387Z,20.555
2022-09-24T14:36:11.388Z,20.53
2022-09-24T14:37:11.232Z,20.515
2022-09-24T14:38:11.230Z,20.53
2022-09-24T14:39:11.491Z,20.525
2022-09-24T14:40:11.632Z,20.545
2022-09-24T14:41:11.310Z,20.54
2022-09-24T14:42:11.216Z,20.55
2022-09-24T14:43:10.931Z,20.56
2022-09-24T14:44:11.146Z,20.54
2022-09-24T14:45:10.967Z,20.55
2022-09-24T14:46:10.529Z,20.515
2022-09-24T14:47:12.042Z,20.5
2022-09-24T14:48:12.041Z,20.515
2022-09-24T14:49:11.810Z,20.505
2022-09-24T14:50:12.032Z,20.47
2022-09-24T14:51:11.387Z,20.455
2022-09-24T14:52:10.964Z,20.45
2022-09-24T14:53:11.550Z,20.394
2022-09-24T14:54:11.851Z,20.339
2022-09-24T14:55:11.429Z,20.305
2022-09-24T14:56:11.520Z,20.285
2022-09-24T14:57:11.601Z,20.265
2022-09-24T14:58:11.659Z,20.26
2022-09-24T14:59:11.248Z,20.24
2022-09-24T15:00:10.736Z,20.23
2022-09-24T15:01:11.336Z,20.215
2022-09-24T15:02:11.517Z,20.1891
2022-09-24T15:03:11.832Z,20.194
2022-09-24T15:04:11.081Z,20.1783
2022-09-24T15:05:11.108Z,20.1316
2022-09-24T15:06:10.992Z,20.085
2022-09-24T15:07:11.147Z,20.1
2022-09-24T15:08:10.882Z,20.085
2022-09-24T15:09:10.100Z,20.075
2022-09-24T15:10:10.632Z,20.065
2022-09-24T15:11:11.599Z,20.06
2022-09-24T15:12:10.368Z,20.075
2022-09-24T15:13:12.008Z,20.07
2022-09-24T15:14:11.855Z,20.065
2022-09-24T15:15:11.783Z,20.08
2022-09-24T15:16:11.811Z,20.055
2022-09-24T15:17:11.624Z,20.035
2022-09-24T15:18:11.693Z,20.02
2022-09-24T15:19:11.758Z,20.015
2022-09-24T15:20:11.459Z,19.995
2022-09-24T15:21:11.575Z,20.015
2022-09-24T15:22:11.748Z,20.015
2022-09-24T15:23:11.251Z,20.035
2022-09-24T15:24:11.402Z,20.05
2022-09-24T15:25:11.722Z,20.055
2022-09-24T15:26:11.534Z,20.08
2022-09-24T15:27:11.423Z,20.09
2022-09-24T15:28:10.930Z,20.0872
2022-09-24T15:29:11.029Z,20.11
2022-09-24T15:30:11.541Z,20.11
2022-09-24T15:31:10.967Z,20.15
2022-09-24T15:32:11.108Z,20.12
2022-09-24T15:33:11.228Z,20.143
2022-09-24T15:34:10.981Z,20.149
2022-09-24T15:35:10.902Z,20.1258
2022-09-24T15:36:11.105Z,20.1316
2022-09-24T15:37:11.313Z,20.155
2022-09-24T15:38:11.546Z,20.157
2022-09-24T15:39:11.517Z,20.1772
2022-09-24T15:40:10.806Z,20.205
2022-09-24T15:41:12.172Z,20.203
2022-09-24T15:42:11.729Z,20.2009
2022-09-24T15:43:11.629Z,20.215
2022-09-24T15:44:11.730Z,20.225
2022-09-24T15:45:12.054Z,20.23
2022-09-24T15:46:11.634Z,20.24
2022-09-24T15:47:11.538Z,20.235
2022-09-24T15:48:11.608Z,20.24
2022-09-24T15:49:12.092Z,20.235
2022-09-24T15:50:11.804Z,20.235
2022-09-24T15:51:15.445Z,20.235
2022-09-24T15:52:10.991Z,20.24
2022-09-24T15:53:11.095Z,20.26
2022-09-24T15:54:11.231Z,20.25
2022-09-24T15:55:11.234Z,20.24
2022-09-24T15:56:10.658Z,20.245
2022-09-24T15:57:11.494Z,20.154
2022-09-24T15:58:14.599Z,20.16
2022-09-24T15:59:11.131Z,20.137
2022-09-24T16:00:11.014Z,20.1316
2022-09-24T16:01:11.386Z,20.137
2022-09-24T16:02:10.974Z,20.115
2022-09-24T16:03:11.294Z,20.07
2022-09-24T16:04:10.357Z,20.04
2022-09-24T16:05:10.269Z,20.005
2022-09-24T16:06:10.773Z,20.005
2022-09-24T16:07:10.549Z,20.015
2022-09-24T16:08:10.547Z,19.995
2022-09-24T16:09:11.697Z,19.965
2022-09-24T16:10:11.740Z,19.94
2022-09-24T16:11:11.299Z,19.93
2022-09-24T16:12:11.681Z,19.905
2022-09-24T16:13:11.529Z,19.905
2022-09-24T16:14:11.334Z,19.91
2022-09-24T16:15:10.541Z,19.889
2022-09-24T16:16:11.635Z,19.884
2022-09-24T16:17:11.386Z,19.873
2022-09-24T16:18:11.573Z,19.889
2022-09-24T16:19:11.929Z,19.895
2022-09-24T16:20:11.416Z,19.905
2022-09-24T16:21:11.083Z,19.895
2022-09-24T16:22:11.105Z,19.867
2022-09-24T16:23:10.627Z,19.856
2022-09-24T16:24:10.514Z,19.85
2022-09-24T16:25:11.185Z,19.805
2022-09-24T16:26:10.165Z,19.775
2022-09-24T16:27:10.820Z,19.77
2022-09-24T16:28:10.482Z,19.765
2022-09-24T16:29:10.816Z,19.77
2022-09-24T16:30:11.302Z,19.755
2022-09-24T16:31:10.486Z,19.745
2022-09-24T16:32:11.761Z,19.75
2022-09-24T16:33:11.207Z,19.73
2022-09-24T16:34:10.056Z,19.715
2022-09-24T16:35:11.827Z,19.715
2022-09-24T16:36:11.238Z,19.705
2022-09-24T16:37:10.769Z,19.7
2022-09-24T16:38:10.927Z,19.6783
2022-09-24T16:39:10.936Z,19.6783
2022-09-24T16:40:11.482Z,19.655
2022-09-24T16:41:11.302Z,19.655
2022-09-24T16:42:11.328Z,19.637
2022-09-24T16:43:11.439Z,19.61
2022-09-24T16:44:11.232Z,19.595
2022-09-24T16:45:11.050Z,19.585
2022-09-24T16:46:10.917Z,19.555
2022-09-24T16:47:11.213Z,19.57
2022-09-24T16:48:11.041Z,19.55
2022-09-24T16:49:11.472Z,19.545
2022-09-24T16:50:11.760Z,19.54
2022-09-24T16:51:11.822Z,19.505
2022-09-24T16:52:10.947Z,19.505
2022-09-24T16:53:11.672Z,19.51
2022-09-24T16:54:11.788Z,19.5
2022-09-24T16:55:12.020Z,19.475
2022-09-24T16:56:11.643Z,19.485
2022-09-24T16:57:11.407Z,19.48
2022-09-24T16:58:11.088Z,19.48
2022-09-24T16:59:11.322Z,19.465
2022-09-24T17:00:10.337Z,19.465
2022-09-24T17:01:10.963Z,19.4509
2022-09-24T17:02:11.265Z,19.425
2022-09-24T17:03:11.059Z,19.4261
2022-09-24T17:04:11.097Z,19.415
2022-09-24T17:05:11.446Z,19.429
2022-09-24T17:06:11.365Z,19.435
2022-09-24T17:07:11.240Z,19.415
2022-09-24T17:08:10.892Z,19.405
2022-09-24T17:09:11.172Z,19.41
2022-09-24T17:10:11.731Z,19.3892
2022-09-24T17:11:11.752Z,19.373
2022-09-24T17:12:11.311Z,19.3741
2022-09-24T17:13:11.513Z,19.341
2022-09-24T17:14:10.328Z,19.356
2022-09-24T17:15:10.990Z,19.3683
2022-09-24T17:16:11.042Z,19.356
2022-09-24T17:17:11.318Z,19.345
2022-09-24T17:18:10.943Z,19.339
2022-09-24T17:19:10.412Z,19.3
2022-09-24T17:20:10.852Z,19.296
2022-09-24T17:21:11.066Z,19.305
2022-09-24T17:22:10.969Z,19.28
2022-09-24T17:23:11.029Z,19.27
2022-09-24T17:24:11.210Z,19.245
2022-09-24T17:25:11.440Z,19.245
2022-09-24T17:26:10.861Z,19.24
2022-09-24T17:27:10.912Z,19.23
2022-09-24T17:28:10.876Z,19.235
2022-09-24T17:29:10.909Z,19.22
2022-09-24T17:30:11.970Z,19.21
2022-09-24T17:31:11.772Z,19.21
2022-09-24T17:32:11.758Z,19.2
2022-09-24T17:33:41.378Z,19.1891
2022-09-24T17:34:11.701Z,19.1783
2022-09-24T17:35:11.236Z,19.188
2022-09-24T17:36:11.377Z,19.1783
2022-09-24T17:37:10.937Z,19.21
2022-09-24T17:38:10.961Z,19.172
2022-09-24T17:39:11.235Z,19.195
2022-09-24T17:40:10.797Z,19.194
2022-09-24T17:41:11.140Z,19.165
2022-09-24T17:42:10.784Z,19.155
2022-09-24T17:43:11.079Z,19.16
2022-09-24T17:44:11.986Z,19.172
2022-09-24T17:45:11.016Z,19.16
2022-09-24T17:46:13.899Z,19.1208
2022-09-24T17:47:11.281Z,19.105
2022-09-24T17:48:10.336Z,19.075
2022-09-24T17:49:11.153Z,19.1
2022-09-24T17:50:11.699Z,19.095
2022-09-24T17:51:11.844Z,19.105
2022-09-24T17:52:12.122Z,19.127
2022-09-24T17:53:15.661Z,19.132
2022-09-24T17:54:11.542Z,19.149
2022-09-24T17:55:11.379Z,19.16
2022-09-24T17:56:11.186Z,19.1208
2022-09-24T17:57:11.190Z,19.1258
2022-09-24T17:58:11.300Z,19.166
2022-09-24T17:59:11.188Z,19.149
2022-09-24T18:00:10.809Z,19.188
2022-09-24T18:01:10.973Z,19.21
2022-09-24T18:02:11.194Z,19.235
2022-09-24T18:03:10.891Z,19.245
2022-09-24T18:04:10.461Z,19.255
2022-09-24T18:05:12.106Z,19.25
2022-09-24T18:06:11.847Z,19.245
2022-09-24T18:07:11.270Z,19.24
2022-09-24T18:08:11.638Z,19.245
2022-09-24T18:09:11.356Z,19.245
2022-09-24T18:10:11.475Z,19.245
2022-09-24T18:11:11.039Z,19.25
2022-09-24T18:12:16.358Z,19.245
2022-09-24T18:13:11.567Z,19.225
2022-09-24T18:14:11.200Z,19.24
2022-09-24T18:15:11.250Z,19.245
2022-09-24T18:16:11.384Z,19.25
2022-09-24T18:17:10.950Z,19.25
2022-09-24T18:18:10.953Z,19.25
2022-09-24T18:19:10.146Z,19.255
2022-09-24T18:20:10.994Z,19.255
2022-09-24T18:21:10.160Z,19.235
2022-09-24T18:22:11.916Z,19.245
2022-09-24T18:23:11.571Z,19.235
2022-09-24T18:24:11.885Z,19.205
2022-09-24T18:25:11.593Z,19.195
2022-09-24T18:26:10.856Z,19.19
2022-09-24T18:27:11.535Z,19.195
2022-09-24T18:28:14.254Z,19.204
2022-09-24T18:29:10.604Z,19.195
2022-09-24T18:30:11.089Z,19.2
2022-09-24T18:31:10.936Z,19.2
2022-09-24T18:32:10.935Z,19.1891
2022-09-24T18:33:10.921Z,19.195
2022-09-24T18:34:10.648Z,19.1841
2022-09-24T18:35:11.241Z,19.1891
2022-09-24T18:36:11.311Z,19.19
2022-09-24T18:37:10.792Z,19.188
2022-09-24T18:38:10.825Z,19.145
2022-09-24T18:39:11.864Z,19.131
2022-09-24T18:40:11.762Z,19.1
2022-09-24T18:41:12.069Z,19.115
2022-09-24T18:42:11.691Z,19.105
2022-09-24T18:43:11.802Z,19.1
2022-09-24T18:44:11.748Z,19.105
2022-09-24T18:45:11.797Z,19.09
2022-09-24T18:46:11.599Z,19.095
2022-09-24T18:47:11.026Z,19.1036
2022-09-24T18:48:11.123Z,19.115
2022-09-24T18:49:11.469Z,19.1
2022-09-24T18:50:10.918Z,19.1316
2022-09-24T18:51:11.116Z,19.1316
2022-09-24T18:52:10.326Z,19.137
2022-09-24T18:53:10.885Z,19.172
2022-09-24T18:54:09.672Z,19.166
2022-09-24T18:55:11.134Z,19.16
2022-09-24T18:56:11.066Z,19.137
2022-09-24T18:57:11.860Z,19.126
2022-09-24T18:58:11.133Z,19.065
2022-09-24T18:59:12.100Z,19.055
2022-09-24T19:00:11.485Z,19.05
2022-09-24T19:01:11.690Z,19.045
2022-09-24T19:02:11.316Z,19.005
2022-09-24T19:03:11.117Z,18.975
2022-09-24T19:04:10.512Z,18.96
2022-09-24T19:05:11.102Z,18.93
2022-09-24T19:06:10.865Z,18.94
2022-09-24T19:07:10.953Z,18.94
2022-09-24T19:08:10.523Z,18.945
2022-09-24T19:09:10.145Z,18.945
2022-09-24T19:10:10.725Z,18.95
2022-09-24T19:11:11.026Z,18.915
2022-09-24T19:12:10.631Z,18.9
2022-09-24T19:13:11.030Z,18.9
2022-09-24T19:14:11.449Z,18.9
2022-09-24T19:15:11.536Z,18.889
2022-09-24T19:16:11.450Z,18.885
2022-09-24T19:17:11.083Z,18.873
2022-09-24T19:18:11.647Z,18.862
2022-09-24T19:19:11.188Z,18.855
2022-09-24T19:20:11.215Z,18.845
2022-09-24T19:21:11.052Z,18.88
2022-09-24T19:22:11.667Z,18.8791
2022-09-24T19:23:11.072Z,18.89
2022-09-24T19:24:11.036Z,18.885
2022-09-24T19:25:10.937Z,18.8741
2022-09-24T19:26:09.965Z,18.862
2022-09-24T19:27:10.370Z,18.833
2022-09-24T19:28:10.676Z,18.834
2022-09-24T19:29:11.929Z,18.8216
2022-09-24T19:30:11.790Z,18.8158
2022-09-24T19:31:11.775Z,18.827
2022-09-24T19:32:11.456Z,18.8
2022-09-24T19:33:11.249Z,18.805
2022-09-24T19:34:10.878Z,18.795
2022-09-24T19:35:11.609Z,18.79
2022-09-24T19:36:10.751Z,18.8108
2022-09-24T19:37:10.684Z,18.8158
2022-09-24T19:38:11.143Z,18.805
2022-09-24T19:39:10.878Z,18.81
2022-09-24T19:40:11.015Z,18.805
2022-09-24T19:41:10.821Z,18.795
2022-09-24T19:42:11.710Z,18.816
2022-09-24T19:43:10.152Z,18.795
2022-09-24T19:44:10.901Z,18.795
2022-09-24T19:45:16.331Z,18.8
2022-09-24T19:46:12.068Z,18.77
2022-09-24T19:47:11.554Z,18.77
2022-09-24T19:48:10.855Z,18.765
2022-09-24T19:49:11.002Z,18.75
2022-09-24T19:50:16.518Z,18.75
2022-09-24T19:51:10.789Z,18.735
2022-09-24T19:52:11.346Z,18.73
2022-09-24T19:53:11.393Z,18.714
2022-09-24T19:54:10.483Z,18.705
2022-09-24T19:55:10.906Z,18.71
2022-09-24T19:56:10.806Z,18.72
2022-09-24T19:57:10.688Z,18.715
2022-09-24T19:58:11.729Z,18.71
2022-09-24T19:59:10.935Z,18.7
2022-09-24T20:00:11.700Z,18.705
2022-09-24T20:01:16.300Z,18.71
2022-09-24T20:02:11.551Z,18.73
2022-09-24T20:03:11.186Z,18.715
2022-09-24T20:04:11.642Z,18.725
2022-09-24T20:05:11.087Z,18.745
2022-09-24T20:06:11.518Z,18.735
2022-09-24T20:07:10.803Z,18.75
2022-09-24T20:08:10.900Z,18.74
2022-09-24T20:09:09.994Z,18.745
2022-09-24T20:10:11.109Z,18.745
2022-09-24T20:11:10.558Z,18.725
2022-09-24T20:12:11.117Z,18.71
2022-09-24T20:13:11.870Z,18.7
2022-09-24T20:14:11.003Z,18.7
2022-09-24T20:15:11.752Z,18.6891
2022-09-24T20:16:11.518Z,18.671
2022-09-24T20:17:11.566Z,18.666
2022-09-24T20:18:11.178Z,18.664
2022-09-24T20:19:11.014Z,18.66
2022-09-24T20:20:10.645Z,18.672
2022-09-24T20:21:10.705Z,18.6841
2022-09-24T20:22:13.986Z,18.666
2022-09-24T20:23:10.718Z,18.655
2022-09-24T20:24:10.034Z,18.66
2022-09-24T20:25:10.846Z,18.649
2022-09-24T20:26:11.912Z,18.666
2022-09-24T20:27:11.859Z,18.666
2022-09-24T20:28:14.333Z,18.658
2022-09-24T20:29:10.441Z,18.66
2022-09-24T20:30:11.768Z,18.6316
2022-09-24T20:31:11.409Z,18.6258
2022-09-24T20:32:10.965Z,18.6316
2022-09-24T20:33:11.143Z,18.627
2022-09-24T20:34:10.446Z,18.637
2022-09-24T20:35:11.129Z,18.6208
2022-09-24T20:36:15.893Z,18.6316
2022-09-24T20:37:11.163Z,18.616
2022-09-24T20:38:10.635Z,18.62
2022-09-24T20:39:11.383Z,18.6
2022-09-24T20:40:11.715Z,18.57
2022-09-24T20:41:11.659Z,18.575
2022-09-24T20:42:11.364Z,18.565
2022-09-24T20:43:11.529Z,18.54
2022-09-24T20:44:10.674Z,18.555
2022-09-24T20:45:11.314Z,18.53
2022-09-24T20:46:11.254Z,18.54
2022-09-24T20:47:11.441Z,18.535
2022-09-24T20:48:10.630Z,18.53
2022-09-24T20:49:11.068Z,18.535
2022-09-24T20:50:11.058Z,18.505
2022-09-24T20:51:11.313Z,18.475
2022-09-24T20:52:10.547Z,18.455
2022-09-24T20:53:11.792Z,18.44
2022-09-24T20:54:10.961Z,18.41
2022-09-24T20:55:11.391Z,18.405
2022-09-24T20:56:11.247Z,18.405
2022-09-24T20:57:11.842Z,18.385
2022-09-24T20:58:11.883Z,18.3683
2022-09-24T20:59:11.654Z,18.373
2022-09-24T21:00:11.334Z,18.3683
2022-09-24T21:01:11.329Z,18.362
2022-09-24T21:02:11.432Z,18.385
2022-09-24T21:03:32.226Z,18.395
2022-09-24T21:04:11.340Z,18.373
2022-09-24T21:05:11.906Z,18.378
2022-09-24T21:06:11.845Z,18.378
2022-09-24T21:07:11.591Z,18.38
2022-09-24T21:08:11.571Z,18.38
2022-09-24T21:09:10.823Z,18.373
2022-09-24T21:10:11.263Z,18.373
2022-09-24T21:11:11.659Z,18.362
2022-09-24T21:12:11.659Z,18.362
2022-09-24T21:13:11.130Z,18.35
2022-09-24T21:14:09.902Z,18.39
2022-09-24T21:15:10.568Z,18.3683
2022-09-24T21:16:10.813Z,18.35
2022-09-24T21:17:10.646Z,18.345
2022-09-24T21:18:22.740Z,18.362
2022-09-24T21:19:11.755Z,18.3683
2022-09-24T21:20:12.031Z,18.3683
2022-09-24T21:21:11.177Z,18.35
2022-09-24T21:22:11.473Z,18.356
2022-09-24T21:23:10.859Z,18.3741
2022-09-24T21:24:10.521Z,18.3791
2022-09-24T21:25:11.535Z,18.3741
2022-09-24T21:26:11.173Z,18.38
2022-09-24T21:27:10.601Z,18.395
2022-09-24T21:28:10.365Z,18.362
2022-09-24T21:29:11.238Z,18.39
2022-09-24T21:30:10.961Z,18.367
2022-09-24T21:31:11.843Z,18.4
2022-09-24T21:32:11.452Z,18.3791
2022-09-24T21:33:11.085Z,18.3683
2022-09-24T21:34:10.972Z,18.373
2022-09-24T21:35:11.044Z,18.3683
2022-09-24T21:36:10.670Z,18.362
2022-09-24T21:37:11.076Z,18.3683
2022-09-24T21:38:10.434Z,18.339
2022-09-24T21:39:10.160Z,18.305
2022-09-24T21:40:10.900Z,18.285
2022-09-24T21:41:10.983Z,18.275
2022-09-24T21:42:11.102Z,18.255
2022-09-24T21:43:11.899Z,18.245
2022-09-24T21:44:11.362Z,18.25
2022-09-24T21:45:11.547Z,18.25
2022-09-24T21:46:11.274Z,18.25
2022-09-24T21:47:11.028Z,18.235
2022-09-24T21:48:11.037Z,18.255
2022-09-24T21:49:10.789Z,18.27
2022-09-24T21:50:11.476Z,18.25
2022-09-24T21:51:10.764Z,18.255
2022-09-24T21:52:10.929Z,18.239
2022-09-24T21:53:10.541Z,18.235
2022-09-24T21:54:11.293Z,18.2084
2022-09-24T21:55:11.226Z,18.2063
2022-09-24T21:56:11.532Z,18.213
2022-09-24T21:57:11.520Z,18.19
2022-09-24T21:58:11.620Z,18.16
2022-09-24T21:59:10.503Z,18.163
2022-09-24T22:00:12.118Z,18.173
2022-09-24T22:01:12.384Z,18.17
2022-09-24T22:02:10.433Z,18.16
2022-09-24T22:03:11.341Z,18.2
2022-09-24T22:04:11.165Z,18.22
2022-09-24T22:05:11.165Z,18.2
2022-09-24T22:06:11.198Z,18.1891
2022-09-24T22:07:11.721Z,18.149
2022-09-24T22:08:11.416Z,18.115
2022-09-24T22:09:11.827Z,18.11
2022-09-24T22:10:11.592Z,18.105
2022-09-24T22:11:11.667Z,18.09
2022-09-24T22:12:11.214Z,18.065
2022-09-24T22:13:11.717Z,18.075
2022-09-24T22:14:10.588Z,18.085
2022-09-24T22:15:11.281Z,18.07
2022-09-24T22:16:10.419Z,18.08
2022-09-24T22:17:11.369Z,18.085
2022-09-24T22:18:12.117Z,18.085
2022-09-24T22:19:10.857Z,18.1
2022-09-24T22:20:12.205Z,18.085
2022-09-24T22:21:11.693Z,18.085
2022-09-24T22:22:11.656Z,18.07
2022-09-24T22:23:11.471Z,18.09
2022-09-24T22:24:10.917Z,18.105
2022-09-24T22:25:11.009Z,18.105
2022-09-24T22:26:11.384Z,18.115
2022-09-24T22:27:11.588Z,18.1
2022-09-24T22:28:11.309Z,18.095
2022-09-24T22:29:10.329Z,18.09
2022-09-24T22:30:11.997Z,18.1
2022-09-24T22:31:12.174Z,18.116
2022-09-24T22:32:11.918Z,18.1
2022-09-24T22:33:11.358Z,18.095
2022-09-24T22:34:10.893Z,18.105
2022-09-24T22:35:11.434Z,18.08
2022-09-24T22:36:10.996Z,18.085
2022-09-24T22:37:11.355Z,18.07
2022-09-24T22:38:11.270Z,18.06
2022-09-24T22:39:10.181Z,18.055
2022-09-24T22:40:11.240Z,18.08
2022-09-24T22:41:11.020Z,18.065
2022-09-24T22:42:10.839Z,18.035
2022-09-24T22:43:11.812Z,18.05
2022-09-24T22:44:11.776Z,18.04
2022-09-24T22:45:11.690Z,18.065
2022-09-24T22:46:11.146Z,18.055
2022-09-24T22:47:11.477Z,18.055
2022-09-24T22:48:11.756Z,18.055
2022-09-24T22:49:10.452Z,18.065
2022-09-24T22:50:10.672Z,18.045
2022-09-24T22:51:11.440Z,17.98
2022-09-24T22:52:11.219Z,17.955
2022-09-24T22:53:10.561Z,17.93
2022-09-24T22:54:11.931Z,17.905
2022-09-24T22:55:11.912Z,17.895
2022-09-24T22:56:11.268Z,17.878
2022-09-24T22:57:11.620Z,17.856
2022-09-24T22:58:11.515Z,17.844
2022-09-24T22:59:11.796Z,17.88
2022-09-24T23:00:11.048Z,17.88
2022-09-24T23:01:11.306Z,17.8683
2022-09-24T23:02:13.216Z,17.873
2022-09-24T23:03:11.070Z,17.8683
2022-09-24T23:04:11.143Z,17.878
2022-09-24T23:05:12.215Z,17.862
2022-09-24T23:06:11.950Z,17.884
2022-09-24T23:07:11.676Z,17.873
2022-09-24T23:08:12.040Z,17.862
2022-09-24T23:09:11.381Z,17.8741
2022-09-24T23:10:11.725Z,17.8683
2022-09-24T23:11:11.433Z,17.8216
2022-09-24T23:12:11.570Z,17.81
2022-09-24T23:13:11.176Z,17.785
2022-09-24T23:14:11.212Z,17.73
2022-09-24T23:15:11.321Z,17.72
2022-09-24T23:16:11.074Z,17.71
2022-09-24T23:17:10.964Z,17.71
2022-09-24T23:18:11.802Z,17.72
2022-09-24T23:19:10.716Z,17.6841
2022-09-24T23:20:11.629Z,17.677
2022-09-24T23:21:11.321Z,17.666
2022-09-24T23:22:11.323Z,17.649
2022-09-24T23:23:11.820Z,17.643
2022-09-24T23:24:11.905Z,17.6316
2022-09-24T23:25:11.012Z,17.585
2022-09-24T23:26:14.248Z,17.555
2022-09-24T23:27:11.439Z,17.5218
2022-09-24T23:28:11.013Z,17.48
2022-09-24T23:29:11.888Z,17.4492
2022-09-24T23:30:11.449Z,17.42
2022-09-24T23:31:11.300Z,17.435
2022-09-24T23:32:11.388Z,17.435
2022-09-24T23:33:11.607Z,17.445
2022-09-24T23:34:10.675Z,17.4454
2022-09-24T23:35:11.319Z,17.425
2022-09-24T23:36:10.721Z,17.415
2022-09-24T23:37:11.216Z,17.41
2022-09-24T23:38:11.257Z,17.389
2022-09-24T23:39:10.845Z,17.405
2022-09-24T23:40:12.222Z,17.383
2022-09-24T23:41:11.853Z,17.372
2022-09-24T23:42:11.621Z,17.345
2022-09-24T23:43:11.797Z,17.3
2022-09-24T23:44:11.247Z,17.3216
2022-09-24T23:45:11.339Z,17.327
2022-09-24T23:46:10.691Z,17.3216
2022-09-24T23:47:11.145Z,17.333
2022-09-24T23:48:10.804Z,17.35
2022-09-24T23:49:10.915Z,17.362
2022-09-24T23:50:11.076Z,17.356
2022-09-24T23:51:11.681Z,17.333
2022-09-24T23:52:11.838Z,17.3108
2022-09-24T23:53:11.895Z,17.3
2022-09-24T23:54:11.743Z,17.3158
2022-09-24T23:55:11.587Z,17.327
2022-09-24T23:56:11.452Z,17.3216
2022-09-24T23:57:11.380Z,17.339
2022-09-24T23:58:11.317Z,17.311
2022-09-24T23:59:10.959Z,17.305
